createdAt,value
2019-05-11T00:02:09.880Z,6.90
2019-05-11T00:04:39.199Z,6.95
2019-05-11T00:07:08.355Z,7.28
2019-05-11T00:09:57.083Z,6.70
2019-05-11T00:12:12.651Z,7.17
2019-05-11T00:14:42.991Z,7.22
2019-05-11T00:17:12.145Z,7.33
2019-05-11T00:19:41.599Z,6.90
2019-05-11T00:22:10.973Z,7.87
2019-05-11T00:24:40.296Z,8.33
2019-05-11T00:27:09.877Z,7.47
2019-05-11T00:29:47.077Z,7.62
2019-05-11T00:32:17.146Z,7.20
2019-05-11T00:34:46.296Z,9.30
2019-05-11T00:37:21.821Z,8.35
2019-05-11T00:39:51.161Z,8.48
2019-05-11T00:42:20.569Z,9.00
2019-05-11T00:44:58.438Z,8.73
2019-05-11T00:47:28.654Z,8.73
2019-05-11T00:49:59.529Z,9.13
2019-05-11T00:55:03.888Z,7.78
2019-05-11T00:57:32.891Z,7.30
2019-05-11T01:00:02.153Z,6.87
2019-05-11T01:02:31.895Z,6.70
2019-05-11T01:05:04.594Z,6.70
2019-05-11T01:07:40.511Z,6.22
2019-05-11T01:10:22.941Z,5.10
2019-05-11T01:12:44.924Z,5.00
2019-05-11T01:15:15.397Z,4.90
2019-05-11T01:17:44.486Z,4.60
2019-05-11T01:20:18.725Z,5.00
2019-05-11T01:22:48.249Z,4.22
2019-05-11T01:25:18.717Z,4.58
2019-05-11T01:27:52.355Z,4.78
2019-05-11T01:30:22.437Z,4.10
2019-05-11T01:32:51.707Z,3.83
2019-05-11T01:35:21.529Z,4.10
2019-05-11T01:37:50.671Z,4.37
2019-05-11T01:40:21.840Z,4.72
2019-05-11T01:42:51.432Z,4.15
2019-05-11T01:45:22.590Z,3.90
2019-05-11T01:47:52.123Z,4.20
2019-05-11T01:50:21.550Z,3.87
2019-05-11T01:52:51.292Z,4.40
2019-05-11T01:55:26.462Z,4.00
2019-05-11T01:57:55.810Z,3.95
2019-05-11T02:00:25.724Z,3.72
2019-05-11T02:02:58.396Z,4.42
2019-05-11T02:05:29.049Z,4.25
2019-05-11T02:07:59.727Z,4.60
2019-05-11T02:10:36.359Z,4.60
2019-05-11T02:13:02.780Z,4.45
2019-05-11T02:15:32.495Z,4.90
2019-05-11T02:18:02.256Z,4.72
2019-05-11T02:20:31.475Z,4.83
2019-05-11T02:23:03.822Z,5.28
2019-05-11T02:25:34.865Z,5.12
2019-05-11T02:28:04.365Z,5.17
2019-05-11T02:30:38.350Z,6.33
2019-05-11T02:33:08.352Z,6.20
2019-05-11T02:35:37.805Z,6.08
2019-05-11T02:38:14.098Z,7.17
2019-05-11T02:40:44.474Z,6.70
2019-05-11T02:43:14.225Z,7.17
2019-05-11T02:45:48.922Z,7.85
2019-05-11T02:48:18.580Z,8.73
2019-05-11T02:50:48.269Z,9.05
2019-05-11T02:53:22.296Z,8.75
2019-05-11T02:55:54.866Z,9.30
2019-05-11T02:58:23.941Z,9.30
2019-05-11T03:01:04.098Z,8.80
2019-05-11T03:03:34.838Z,9.10
2019-05-11T03:06:23.288Z,9.70
2019-05-11T03:08:59.407Z,10.90
2019-05-11T03:11:29.696Z,10.37
2019-05-11T03:14:00.424Z,9.20
2019-05-11T03:16:37.988Z,9.55
2019-05-11T03:19:09.471Z,9.93
2019-05-11T03:21:38.805Z,10.25
2019-05-11T03:24:17.355Z,10.93
2019-05-11T03:26:47.321Z,11.10
2019-05-11T03:29:17.606Z,9.75
2019-05-11T03:31:49.234Z,11.00
2019-05-11T03:34:19.545Z,10.30
2019-05-11T03:36:48.762Z,10.45
2019-05-11T03:39:18.681Z,10.10
2019-05-11T03:41:47.940Z,9.75
2019-05-11T03:44:20.431Z,10.15
2019-05-11T03:46:49.460Z,11.03
2019-05-11T03:49:19.906Z,10.43
2019-05-11T03:51:59.513Z,10.18
2019-05-11T03:54:28.602Z,10.85
2019-05-11T03:56:57.821Z,11.05
2019-05-11T03:59:33.583Z,10.78
2019-05-11T04:02:01.857Z,10.32
2019-05-11T04:04:31.035Z,10.88
2019-05-11T04:07:06.623Z,11.50
2019-05-11T04:09:36.661Z,11.10
2019-05-11T04:12:06.236Z,11.22
2019-05-11T04:14:41.715Z,13.10
2019-05-11T04:17:12.650Z,12.50
2019-05-11T04:19:42.060Z,12.65
2019-05-11T04:22:38.376Z,12.33
2019-05-11T04:25:08.145Z,12.80
2019-05-11T04:27:39.137Z,12.13
2019-05-11T04:30:12.428Z,13.40
2019-05-11T04:32:42.369Z,15.78
2019-05-11T04:35:16.238Z,17.05
2019-05-11T04:38:10.900Z,17.00
2019-05-11T04:40:40.826Z,17.65
2019-05-11T04:43:10.528Z,18.10
2019-05-11T04:45:48.821Z,17.85
2019-05-11T04:48:19.012Z,18.80
2019-05-11T04:50:48.554Z,18.20
2019-05-11T04:53:27.745Z,18.25
2019-05-11T04:55:57.884Z,19.48
2019-05-11T04:58:27.679Z,18.20
2019-05-11T05:01:04.198Z,17.07
2019-05-11T05:03:40.806Z,17.42
2019-05-11T05:06:23.940Z,15.88
2019-05-11T05:08:36.887Z,16.80
2019-05-11T05:11:05.623Z,15.88
2019-05-11T05:13:34.888Z,15.58
2019-05-11T05:16:04.297Z,16.65
2019-05-11T05:18:34.846Z,17.17
2019-05-11T05:21:04.363Z,16.23
2019-05-11T05:23:35.125Z,17.82
2019-05-11T05:26:05.779Z,16.97
2019-05-11T05:28:45.698Z,17.48
2019-05-11T05:31:14.241Z,17.25
2019-05-11T05:33:43.158Z,17.62
2019-05-11T05:36:23.090Z,17.17
2019-05-11T05:38:52.769Z,18.32
2019-05-11T05:41:23.025Z,18.17
2019-05-11T05:44:01.814Z,16.70
2019-05-11T05:46:24.464Z,17.92
2019-05-11T05:48:54.044Z,17.87
2019-05-11T05:51:23.688Z,16.95
2019-05-11T05:53:52.696Z,18.25
2019-05-11T05:56:34.119Z,17.17
2019-05-11T05:59:05.035Z,16.93
2019-05-11T06:01:40.615Z,20.30
2019-05-11T06:04:17.666Z,16.57
2019-05-11T06:06:47.935Z,15.08
2019-05-11T06:09:19.039Z,16.70
2019-05-11T06:11:52.708Z,15.60
2019-05-11T06:14:22.935Z,15.93
2019-05-11T06:16:52.858Z,16.02
2019-05-11T06:19:29.199Z,14.40
2019-05-11T06:21:58.899Z,16.05
2019-05-11T06:24:28.691Z,16.67
2019-05-11T06:27:07.910Z,17.52
2019-05-11T06:29:38.661Z,17.05
2019-05-11T06:32:08.153Z,16.37
2019-05-11T06:34:44.422Z,16.97
2019-05-11T06:37:14.853Z,16.75
2019-05-11T06:39:44.651Z,16.62
2019-05-11T06:42:26.602Z,16.95
2019-05-11T06:44:56.854Z,15.55
2019-05-11T06:47:27.477Z,16.40
2019-05-11T06:50:05.949Z,16.30
2019-05-11T06:52:36.214Z,16.35
2019-05-11T06:55:07.470Z,15.43
2019-05-11T06:57:46.747Z,16.25
2019-05-11T07:00:37.798Z,16.05
2019-05-11T07:03:09.599Z,15.10
2019-05-11T07:05:48.832Z,16.30
2019-05-11T07:08:20.371Z,14.85
2019-05-11T07:10:49.992Z,15.60
2019-05-11T07:13:19.547Z,14.50
2019-05-11T07:15:48.909Z,15.00
2019-05-11T07:18:18.249Z,15.48
2019-05-11T07:20:50.880Z,14.30
2019-05-11T07:23:18.744Z,15.60
2019-05-11T07:25:48.890Z,14.87
2019-05-11T07:28:20.000Z,15.70
2019-05-11T07:30:49.942Z,16.20
2019-05-11T07:33:19.983Z,16.17
2019-05-11T07:36:17.598Z,16.15
2019-05-11T07:38:48.752Z,15.48
2019-05-11T07:41:18.679Z,16.35
2019-05-11T07:43:53.317Z,16.50
2019-05-11T07:46:23.497Z,17.07
2019-05-11T07:48:54.154Z,17.00
2019-05-11T07:51:44.324Z,15.63
2019-05-11T07:54:14.240Z,15.58
2019-05-11T07:56:44.177Z,16.50
2019-05-11T07:59:15.720Z,15.88
2019-05-11T08:01:47.737Z,16.02
2019-05-11T08:04:18.335Z,15.75
2019-05-11T08:06:48.069Z,15.93
2019-05-11T08:09:19.468Z,16.27
2019-05-11T08:11:49.300Z,15.45
2019-05-11T08:14:19.089Z,16.40
2019-05-11T08:16:49.369Z,16.93
2019-05-11T08:19:19.297Z,16.45
2019-05-11T08:21:51.228Z,15.30
2019-05-11T08:24:21.012Z,18.55
2019-05-11T08:26:51.663Z,17.32
2019-05-11T08:29:40.823Z,17.50
2019-05-11T08:32:11.634Z,18.12
2019-05-11T08:34:42.236Z,17.82
2019-05-11T08:37:12.492Z,17.80
2019-05-11T08:39:43.983Z,18.23
2019-05-11T08:42:14.139Z,17.87
2019-05-11T08:44:44.036Z,17.98
2019-05-11T08:47:14.556Z,19.12
2019-05-11T08:49:44.294Z,19.42
2019-05-11T08:52:14.267Z,20.20
2019-05-11T08:54:45.209Z,20.12
2019-05-11T08:57:34.397Z,19.87
2019-05-11T09:00:04.989Z,20.05
2019-05-11T09:02:35.366Z,18.70
2019-05-11T09:05:08.173Z,19.05
2019-05-11T09:10:40.352Z,18.90
2019-05-11T09:13:10.449Z,18.02
2019-05-11T09:15:40.912Z,16.32
2019-05-11T09:18:18.574Z,17.30
2019-05-11T09:20:48.762Z,15.95
2019-05-11T09:23:33.523Z,16.45
2019-05-11T09:25:58.178Z,15.72
2019-05-11T09:28:29.293Z,15.40
2019-05-11T09:30:58.382Z,14.05
2019-05-11T09:33:28.411Z,16.90
2019-05-11T09:35:58.480Z,13.43
2019-05-11T09:38:28.316Z,16.17
2019-05-11T09:40:59.265Z,16.15
2019-05-11T09:43:50.746Z,13.22
2019-05-11T09:46:39.390Z,12.68
2019-05-11T09:49:08.989Z,12.43
2019-05-11T09:51:39.479Z,12.07
2019-05-11T09:54:09.129Z,12.50
2019-05-11T09:56:38.991Z,11.75
2019-05-11T09:59:09.640Z,12.20
2019-05-11T10:01:40.250Z,11.97
2019-05-11T10:04:10.547Z,12.10
2019-05-11T10:06:48.086Z,12.78
2019-05-11T10:09:18.768Z,12.07
2019-05-11T10:11:48.209Z,11.38
2019-05-11T10:14:18.856Z,13.22
2019-05-11T10:16:49.339Z,11.45
2019-05-11T10:19:19.223Z,11.28
2019-05-11T10:21:48.923Z,10.72
2019-05-11T10:24:18.089Z,8.83
2019-05-11T10:26:48.785Z,9.33
2019-05-11T10:29:18.438Z,9.48
2019-05-11T10:31:48.219Z,10.53
2019-05-11T10:34:18.143Z,9.90
2019-05-11T10:36:48.678Z,9.13
2019-05-11T10:39:20.319Z,9.15
2019-05-11T10:41:50.438Z,8.70
2019-05-11T10:44:20.251Z,9.73
2019-05-11T10:46:50.381Z,10.85
2019-05-11T10:49:41.926Z,10.68
2019-05-11T10:52:11.760Z,10.48
2019-05-11T10:54:41.218Z,10.38
2019-05-11T10:57:11.251Z,9.80
2019-05-11T10:59:43.540Z,11.20
2019-05-11T11:02:14.299Z,10.32
2019-05-11T11:04:44.278Z,11.15
2019-05-11T11:07:16.427Z,10.82
2019-05-11T11:09:45.281Z,11.20
2019-05-11T11:12:15.840Z,12.07
2019-05-11T11:14:45.104Z,10.03
2019-05-11T11:17:14.441Z,10.43
2019-05-11T11:19:45.051Z,11.15
2019-05-11T11:25:39.374Z,13.32
2019-05-11T11:28:19.145Z,15.08
2019-05-11T11:30:49.775Z,13.18
2019-05-11T11:33:30.387Z,13.48
2019-05-11T11:36:37.928Z,15.08
2019-05-11T11:39:25.253Z,14.85
2019-05-11T11:41:58.547Z,14.40
2019-05-11T11:44:39.557Z,14.65
2019-05-11T11:47:10.512Z,17.10
2019-05-11T11:49:55.195Z,15.58
2019-05-11T11:52:38.279Z,15.68
2019-05-11T11:55:19.634Z,15.80
2019-05-11T11:58:23.628Z,16.57
2019-05-11T12:01:18.660Z,15.85
2019-05-11T12:04:11.400Z,16.45
2019-05-11T12:07:02.473Z,17.80
2019-05-11T12:09:52.663Z,17.55
2019-05-11T12:12:23.105Z,18.73
2019-05-11T12:14:53.302Z,19.98
2019-05-11T12:17:28.542Z,19.07
2019-05-11T12:19:59.137Z,20.25
2019-05-11T12:22:28.386Z,20.23
2019-05-11T12:24:58.956Z,19.90
2019-05-11T12:27:28.861Z,16.50
2019-05-11T12:29:58.480Z,18.45
2019-05-11T12:32:38.410Z,18.07
2019-05-11T12:35:09.685Z,18.67
2019-05-11T12:37:39.999Z,17.10
2019-05-11T12:40:11.408Z,18.05
2019-05-11T12:42:40.938Z,18.52
2019-05-11T12:45:13.457Z,16.97
2019-05-11T12:48:12.530Z,18.55
2019-05-11T12:50:43.812Z,15.63
2019-05-11T12:53:34.870Z,15.43
2019-05-11T12:56:04.741Z,15.32
2019-05-11T12:58:35.024Z,14.98
2019-05-11T13:01:08.742Z,14.73
2019-05-11T13:03:49.332Z,14.85
2019-05-11T13:06:19.219Z,15.03
2019-05-11T13:08:48.769Z,15.75
2019-05-11T13:11:18.869Z,13.78
2019-05-11T13:14:19.499Z,14.07
2019-05-11T13:16:51.384Z,12.90
2019-05-11T13:19:21.481Z,12.30
2019-05-11T13:24:48.042Z,11.95
2019-05-11T13:27:18.087Z,10.85
2019-05-11T13:30:09.754Z,10.68
2019-05-11T13:32:41.122Z,12.23
2019-05-11T13:35:31.109Z,10.82
2019-05-11T13:38:04.458Z,8.33
2019-05-11T13:40:35.191Z,9.30
2019-05-11T13:43:05.719Z,8.90
2019-05-11T13:45:35.536Z,6.85
2019-05-11T13:48:39.390Z,6.58
2019-05-11T13:51:09.461Z,7.45
2019-05-11T13:53:39.063Z,5.95
2019-05-11T13:56:18.406Z,6.40
2019-05-11T13:58:49.618Z,5.42
2019-05-11T14:01:20.411Z,7.12
2019-05-11T14:03:50.316Z,6.37
2019-05-11T14:06:22.192Z,6.33
2019-05-11T14:08:52.255Z,5.78
2019-05-11T14:11:23.061Z,5.10
2019-05-11T14:13:52.716Z,5.42
2019-05-11T14:16:23.056Z,4.92
2019-05-11T14:18:52.388Z,4.65
2019-05-11T14:21:23.719Z,4.85
2019-05-11T14:23:54.629Z,4.65
2019-05-11T14:26:24.447Z,3.90
2019-05-11T14:28:54.047Z,4.47
2019-05-11T14:31:23.488Z,4.85
2019-05-11T14:36:48.266Z,4.28
2019-05-11T14:39:19.317Z,4.47
2019-05-11T14:41:58.721Z,4.30
2019-05-11T14:44:28.582Z,4.58
2019-05-11T14:46:59.552Z,4.60
2019-05-11T14:49:37.894Z,3.67
2019-05-11T14:52:08.285Z,4.08
2019-05-11T14:54:38.240Z,4.00
2019-05-11T14:57:25.224Z,4.22
2019-05-11T15:00:28.782Z,4.80
2019-05-11T15:03:28.764Z,5.03
2019-05-11T15:05:58.226Z,5.22
2019-05-11T15:14:15.242Z,4.80
2019-05-11T15:17:18.635Z,4.60
2019-05-11T15:20:08.652Z,5.62
2019-05-11T15:22:37.903Z,5.53
2019-05-11T15:25:10.130Z,6.90
2019-05-11T15:27:48.803Z,5.30
2019-05-11T15:30:18.435Z,5.25
2019-05-11T15:32:48.451Z,4.60
2019-05-11T15:35:18.518Z,5.22
2019-05-11T15:37:48.664Z,5.72
2019-05-11T15:40:19.527Z,5.65
2019-05-11T15:42:48.903Z,5.33
2019-05-11T15:45:18.882Z,7.78
2019-05-11T15:47:48.788Z,7.67
2019-05-11T15:50:26.080Z,8.23
2019-05-11T15:52:58.190Z,6.35
2019-05-11T15:55:28.038Z,6.12
2019-05-11T15:58:23.698Z,6.67
2019-05-11T16:00:53.752Z,7.20
2019-05-11T16:03:24.839Z,8.58
2019-05-11T16:05:58.356Z,6.42
2019-05-11T16:08:28.487Z,7.20
2019-05-11T16:10:58.445Z,6.87
2019-05-11T16:13:28.568Z,5.75
2019-05-11T16:15:58.457Z,6.28
2019-05-11T16:18:27.658Z,6.05
2019-05-11T16:21:03.107Z,5.90
2019-05-11T16:23:33.110Z,6.10
2019-05-11T16:26:03.009Z,6.55
2019-05-11T16:28:55.068Z,5.97
2019-05-11T16:31:24.475Z,5.75
2019-05-11T16:33:53.950Z,6.17
2019-05-11T16:36:28.923Z,6.00
2019-05-11T16:38:58.312Z,5.80
2019-05-11T16:41:29.183Z,7.22
2019-05-11T16:43:59.165Z,7.15
2019-05-11T16:46:34.415Z,6.55
2019-05-11T16:49:04.221Z,7.62
2019-05-11T16:51:41.831Z,7.85
2019-05-11T16:54:11.723Z,8.63
2019-05-11T16:56:42.032Z,8.50
2019-05-11T16:59:20.918Z,8.70
2019-05-11T17:01:50.645Z,7.62
2019-05-11T17:04:20.580Z,8.50
2019-05-11T17:06:57.889Z,8.10
2019-05-11T17:09:28.763Z,9.28
2019-05-11T17:11:58.109Z,8.63
2019-05-11T17:14:34.271Z,8.13
2019-05-11T17:17:04.090Z,7.90
2019-05-11T17:19:43.748Z,9.90
2019-05-11T17:24:49.400Z,9.65
2019-05-11T17:27:19.008Z,8.78
2019-05-11T17:30:00.844Z,9.85
2019-05-11T17:32:31.845Z,8.93
2019-05-11T17:35:01.447Z,9.20
2019-05-11T17:37:38.049Z,9.25
2019-05-11T17:40:10.583Z,9.20
2019-05-11T17:42:40.440Z,9.13
2019-05-11T17:45:30.057Z,9.00
2019-05-11T17:47:59.113Z,9.10
2019-05-11T17:50:48.754Z,8.85
2019-05-11T17:53:25.230Z,9.18
2019-05-11T17:56:03.116Z,8.68
2019-05-11T17:58:33.017Z,8.43
2019-05-11T18:01:02.369Z,8.88
2019-05-11T18:06:22.186Z,9.90
2019-05-11T18:08:53.003Z,9.10
2019-05-11T18:11:30.408Z,9.30
2019-05-11T18:14:01.400Z,9.38
2019-05-11T18:16:32.686Z,15.65
2019-05-11T18:19:02.489Z,10.30
2019-05-11T18:21:33.231Z,11.15
2019-05-11T18:24:03.095Z,9.13
2019-05-11T18:26:40.435Z,9.03
2019-05-11T18:29:09.659Z,10.45
2019-05-11T18:31:39.588Z,8.58
2019-05-11T18:34:17.864Z,8.68
2019-05-11T18:36:48.534Z,7.75
2019-05-11T18:39:18.758Z,7.67
2019-05-11T18:41:49.714Z,8.50
2019-05-11T18:44:20.747Z,8.58
2019-05-11T18:47:10.992Z,7.90
2019-05-11T18:49:48.459Z,8.38
2019-05-11T18:52:18.801Z,8.40
2019-05-11T18:54:50.420Z,8.80
2019-05-11T18:57:29.708Z,8.15
2019-05-11T18:59:59.531Z,8.05
2019-05-11T19:02:30.630Z,8.40
2019-05-11T19:05:08.105Z,7.37
2019-05-11T19:07:38.782Z,7.83
2019-05-11T19:10:09.271Z,12.18
2019-05-11T19:12:41.606Z,13.93
2019-05-11T19:15:11.867Z,13.50
2019-05-11T19:17:50.647Z,15.55
2019-05-11T19:20:25.096Z,11.48
2019-05-11T19:22:55.288Z,9.20
2019-05-11T19:25:24.797Z,9.40
2019-05-11T19:28:02.533Z,7.92
2019-05-11T19:30:32.012Z,8.40
2019-05-11T19:33:02.220Z,8.10
2019-05-11T19:35:37.864Z,9.20
2019-05-11T19:38:08.714Z,7.87
2019-05-11T19:40:38.767Z,7.90
2019-05-11T19:43:08.151Z,8.80
2019-05-11T19:45:38.453Z,8.83
2019-05-11T19:48:08.614Z,7.12
2019-05-11T19:51:06.942Z,8.25
2019-05-11T19:53:31.541Z,7.55
2019-05-11T19:56:01.072Z,8.25
2019-05-11T19:58:52.024Z,8.28
2019-05-11T20:01:22.046Z,7.90
2019-05-11T20:03:51.431Z,8.73
2019-05-11T20:06:28.124Z,7.75
2019-05-11T20:08:58.073Z,7.97
2019-05-11T20:11:28.012Z,8.95
2019-05-11T20:13:58.997Z,8.90
2019-05-11T20:16:28.329Z,8.85
2019-05-11T20:19:00.289Z,7.53
2019-05-11T20:21:48.417Z,8.43
2019-05-11T20:24:18.676Z,7.42
2019-05-11T20:26:49.244Z,8.15
2019-05-11T20:29:18.759Z,6.67
2019-05-11T20:31:48.604Z,6.30
2019-05-11T20:34:18.293Z,6.58
2019-05-11T20:36:58.686Z,6.33
2019-05-11T20:39:29.258Z,6.45
2019-05-11T20:41:58.314Z,5.90
2019-05-11T20:44:53.030Z,5.58
2019-05-11T20:47:23.806Z,6.03
2019-05-11T20:49:55.309Z,5.58
2019-05-11T20:52:29.458Z,6.00
2019-05-11T20:54:59.271Z,5.53
2019-05-11T20:57:30.117Z,4.70
2019-05-11T21:00:07.966Z,5.50
2019-05-11T21:02:38.255Z,4.70
2019-05-11T21:05:09.039Z,4.62
2019-05-11T21:07:46.039Z,4.03
2019-05-11T21:10:38.133Z,4.12
2019-05-11T21:13:08.558Z,4.05
2019-05-11T21:15:47.682Z,3.75
2019-05-11T21:18:18.409Z,4.58
2019-05-11T21:20:48.337Z,4.15
2019-05-11T21:23:18.689Z,4.80
2019-05-11T21:25:53.225Z,3.83
2019-05-11T21:28:23.325Z,3.65
2019-05-11T21:31:12.954Z,3.80
2019-05-11T21:33:41.906Z,3.70
2019-05-11T21:36:28.464Z,3.17
2019-05-11T21:39:07.960Z,3.52
2019-05-11T21:41:38.668Z,4.03
2019-05-11T21:47:07.709Z,3.10
2019-05-11T21:49:37.809Z,3.20
2019-05-11T21:52:09.321Z,3.17
2019-05-11T21:54:38.953Z,3.40
2019-05-11T22:00:08.976Z,3.02
2019-05-11T22:03:02.151Z,3.10
2019-05-11T22:08:35.240Z,3.17
2019-05-11T22:11:10.534Z,3.47
2019-05-11T22:13:50.381Z,2.92
2019-05-11T22:16:19.954Z,3.40
2019-05-11T22:18:49.038Z,3.15
2019-05-11T22:21:19.042Z,3.42
2019-05-11T22:23:50.680Z,2.87
2019-05-11T22:26:19.466Z,3.35
2019-05-11T22:28:54.723Z,3.12
2019-05-11T22:31:35.313Z,3.55
2019-05-11T22:34:28.365Z,3.30
2019-05-11T22:36:58.217Z,2.83
2019-05-11T22:39:40.520Z,2.85
2019-05-11T22:42:29.056Z,3.35
2019-05-11T22:45:15.267Z,3.15
2019-05-11T22:47:49.645Z,3.02
2019-05-11T22:50:50.539Z,2.72
2019-05-11T22:53:19.268Z,3.40
2019-05-11T22:55:48.959Z,3.20
2019-05-11T22:58:18.812Z,3.08
2019-05-11T23:00:48.020Z,3.12
2019-05-11T23:03:19.149Z,3.17
2019-05-11T23:05:50.494Z,3.00
2019-05-11T23:08:42.154Z,3.17
2019-05-11T23:11:14.581Z,3.80
2019-05-11T23:13:49.252Z,3.40
2019-05-11T23:16:32.841Z,3.15
2019-05-11T23:19:09.543Z,3.40
2019-05-11T23:21:38.821Z,3.05
2019-05-11T23:27:02.490Z,2.95
2019-05-11T23:29:32.579Z,3.12
2019-05-11T23:32:08.650Z,3.75
2019-05-11T23:38:00.752Z,3.33
2019-05-11T23:40:29.775Z,3.42
2019-05-11T23:42:59.947Z,3.30
2019-05-11T23:45:33.196Z,3.80
2019-05-11T23:50:38.656Z,3.75
2019-05-11T23:53:10.363Z,3.17
2019-05-11T23:55:39.151Z,3.10
2019-05-11T23:58:08.888Z,3.10
